Cercs-Sant Jordi





Hora UTC 20:30
Temperatura 19.5 ºC
Humitat 64.6 %
Pressió 1020.6 hPa
Pluja 0.0 mm
Velocitat vent 5.4 km/h
Direcció vent WSW
Radiació solar 0.1 W/m²

Dades diàries 2022-08-19



Hora UTC (hivern +1h; estiu +2h)
Temperatura (ºC) Humitat (%) Pressió (hPa) Velocitat vent (km/h) Precipitació (mm) Radiació solar (W/m²)
Hora UTC Aire Humitat Pressió Vel. Dir. Vel. Max Dir. Intent. màx 5 min. Rad. Sol.
00:05 13.4 86.4 1017.8 0.3 NW 0.3 NNW 0.0 0.1
00:10 13.2 86.1 1017.7 0.9 S 3.4 SW 0.0 0.1
00:15 13.2 83.7 1017.7 1.0 ENE 6.1 E 0.0 0.1
00:20 13.1 84.9 1017.7 0.8 WSW 3.4 W 0.0 0.1
00:25 12.9 85.3 1017.6 2.4 SW 6.1 WSW 0.0 0.1
00:30 12.8 86.2 1017.7 1.0 WNW 3.4 SSW 0.0 0.1
00:35 12.8 86.5 1017.8 1.1 WNW 6.1 NW 0.0 0.1
00:40 12.8 86.3 1017.8 0.0 WSW 3.4 WSW 0.0 0.1
00:45 12.8 87.3 1017.7 0.1 WNW 3.4 WNW 0.0 0.1
00:50 12.7 87.4 1017.7 1.9 SSW 6.1 SSW 0.0 0.1
00:55 12.7 88.0 1017.7 0.0 NNE 0.0 SE 0.0 0.1
01:00 12.6 86.8 1017.6 0.3 NNW 3.4 NW 0.0 0.1
01:05 12.7 86.1 1017.6 2.7 N 6.1 NE 0.0 0.1
01:10 13.1 85.5 1017.6 0.8 NNE 6.1 ENE 0.0 0.1
01:15 13.0 85.2 1017.6 2.1 WSW 6.1 WSW 0.0 0.1
01:20 13.1 80.7 1017.5 1.8 W 6.1 W 0.0 0.1
01:25 13.7 76.2 1017.5 2.3 NE 6.1 NE 0.0 0.1
01:30 14.0 74.7 1017.5 2.2 ENE 6.1 ENE 0.0 0.1
01:35 14.0 75.1 1017.5 2.1 NNE 6.1 NE 0.0 0.1
01:40 13.8 76.0 1017.5 0.8 NW 6.1 NNW 0.0 0.1
01:45 13.7 75.9 1017.5 2.4 W 6.1 WNW 0.0 0.1
01:50 13.9 73.3 1017.4 1.5 WSW 6.1 SW 0.0 0.1
01:55 14.1 72.0 1017.4 2.7 SW 8.8 WNW 0.0 0.1
02:00 14.3 71.2 1017.4 1.4 ENE 6.1 SE 0.0 0.1
02:05 14.1 73.7 1017.4 3.2 SSW 8.8 S 0.0 0.1
02:10 13.3 78.7 1017.4 1.4 SW 6.1 SSW 0.0 0.1
02:15 13.2 77.7 1017.5 1.3 NE 6.1 NNE 0.0 0.1
02:20 13.3 77.3 1017.4 0.6 ESE 6.1 ESE 0.0 0.1
02:25 13.2 78.6 1017.4 0.6 SSW 6.1 SW 0.0 0.1
02:30 12.8 81.2 1017.4 0.0 NNE 0.0 SW 0.0 0.1
02:35 12.6 82.8 1017.5 1.0 WSW 6.1 WSW 0.0 0.1
02:40 12.3 85.0 1017.5 0.2 SSW 3.4 SSW 0.0 0.1
02:45 12.2 86.7 1017.5 0.2 ESE 3.4 E 0.0 0.1
02:50 12.2 87.9 1017.5 0.1 ESE 3.4 ESE 0.0 0.1
02:55 12.2 88.6 1017.6 0.0 NNE 0.0 NNE 0.0 0.1
03:00 12.2 88.7 1017.7 0.2 SE 3.4 SE 0.0 0.1
03:05 12.1 88.7 1017.7 0.0 NNE 0.0 E 0.0 0.1
03:10 12.0 89.0 1017.7 1.4 W 3.4 WNW 0.0 0.1
03:15 12.1 88.6 1017.7 0.5 WSW 6.1 WSW 0.0 0.1
03:20 12.1 87.6 1017.7 0.2 NW 3.4 NW 0.0 0.1
03:25 12.2 87.2 1017.8 0.6 NNE 3.4 N 0.0 0.1
03:30 12.3 86.4 1017.8 1.3 NE 6.1 NE 0.0 0.1
03:35 12.4 85.7 1017.8 0.2 SE 3.4 ESE 0.0 0.1
03:40 12.4 87.6 1017.9 0.6 ENE 6.1 ENE 0.0 0.1
03:45 12.1 88.4 1017.9 1.2 SSW 6.1 SSW 0.0 0.1
03:50 11.7 89.3 1017.9 2.4 SW 6.1 SSW 0.0 0.1
03:55 11.6 89.6 1017.9 1.4 WSW 6.1 SW 0.0 0.1
04:00 11.6 89.1 1017.9 0.5 NW 3.4 W 0.0 0.1
04:05 11.8 87.6 1017.9 0.0 NNE 0.0 N 0.0 0.1
04:10 12.1 86.4 1017.9 2.4 ENE 6.1 ENE 0.0 0.1
04:15 12.2 86.0 1018.0 1.2 SSW 6.1 SSW 0.0 0.1
04:20 11.8 86.8 1018.0 2.5 WSW 6.1 SW 0.0 0.1
04:25 11.8 87.8 1018.0 0.3 WSW 3.4 WSW 0.0 0.1
04:30 11.9 86.9 1018.0 0.2 NNW 3.4 NW 0.0 0.1
04:35 12.1 85.3 1018.1 0.7 NE 3.4 NE 0.0 0.1
04:40 12.3 84.1 1018.1 1.1 E 6.1 ESE 0.0 0.2
04:45 12.4 82.1 1018.1 0.2 ESE 3.4 E 0.0 0.3
04:50 12.4 82.2 1018.3 0.7 SE 6.1 SE 0.0 0.8
04:55 12.0 84.7 1018.4 0.9 SW 6.1 SSW 0.0 1.5
05:00 11.7 87.8 1018.4 2.5 WSW 6.1 WNW 0.0 2.5
05:05 11.5 88.1 1018.4 0.8 WSW 6.1 SSW 0.0 3.6
05:10 11.5 87.6 1018.4 1.5 WSW 6.1 W 0.0 4.9
05:15 11.7 86.1 1018.5 0.5 NNW 3.4 NNW 0.0 6.4
05:20 11.9 85.0 1018.5 1.0 NNW 6.1 N 0.0 7.7
05:25 12.1 83.7 1018.4 1.2 NNE 6.1 NNE 0.0 9.2
05:30 12.2 82.6 1018.4 2.1 SSW 6.1 SSW 0.0 10.3
05:35 12.3 80.0 1018.5 2.6 SSW 6.1 S 0.0 11.4
05:40 12.9 75.7 1018.5 3.1 S 11.5 S 0.0 12.7
05:45 13.5 72.8 1018.6 0.6 SW 6.1 SSW 0.0 14.0
05:50 13.4 74.4 1018.6 0.5 S 3.4 SSW 0.0 15.0
05:55 13.1 75.7 1018.6 0.4 SSE 6.1 SE 0.0 18.9
06:00 13.6 73.7 1018.6 1.7 SSW 6.1 SSW 0.0 21.2
06:05 14.4 70.8 1018.6 3.1 SSW 6.1 S 0.0 22.2
06:10 14.7 70.5 1018.7 1.7 SSW 8.8 WSW 0.0 24.1
06:15 14.4 72.0 1018.7 3.6 S 8.8 S 0.0 26.0
06:20 13.7 75.4 1018.7 1.7 SSW 6.1 SSW 0.0 23.7
06:25 13.7 75.8 1018.7 0.0 NNE 0.0 SSW 0.0 24.2
06:30 13.7 76.8 1018.7 1.2 SSW 6.1 SW 0.0 24.5
06:35 13.4 80.2 1018.8 0.8 S 6.1 S 0.0 25.2
06:40 13.5 81.4 1018.8 1.2 SSW 6.1 SSW 0.0 25.9
06:45 13.5 82.3 1018.9 2.0 S 6.1 S 0.0 26.1
06:50 13.7 80.5 1019.0 0.0 ESE 3.4 SSW 0.0 26.4
06:55 14.1 79.2 1019.0 0.8 ENE 6.1 ENE 0.0 26.9
07:00 14.5 77.6 1019.0 0.2 E 3.4 ENE 0.0 27.3
07:05 14.8 76.2 1019.0 0.1 ENE 3.4 ENE 0.0 27.9
07:10 15.0 75.0 1019.1 0.0 NNE 0.0 E 0.0 28.7
07:15 15.2 76.2 1019.2 1.8 E 6.1 ESE 0.0 29.1
07:20 15.4 77.2 1019.2 1.9 E 6.1 ENE 0.0 29.3
07:25 15.4 78.2 1019.3 2.5 E 8.8 E 0.0 29.6
07:30 15.4 77.7 1019.3 1.9 E 6.1 E 0.0 30.1
07:35 15.6 76.6 1019.3 0.8 SE 6.1 SE 0.0 30.5
07:40 15.9 75.8 1019.3 0.5 ESE 6.1 NE 0.0 30.9
07:45 16.3 74.9 1019.4 1.0 SE 6.1 E 0.0 31.1
07:50 16.4 75.7 1019.4 2.3 S 6.1 SW 0.0 31.8
07:55 16.3 76.5 1019.4 2.3 S 6.1 SSW 0.0 32.5
08:00 16.6 75.7 1019.4 1.2 S 6.1 S 0.0 32.6
08:05 16.8 75.7 1019.3 2.1 SE 6.1 SE 0.0 33.0
08:10 17.0 74.1 1019.3 2.7 E 8.8 E 0.0 34.0
08:15 17.2 74.1 1019.3 1.7 SE 8.8 SSE 0.0 49.4
08:20 17.4 74.0 1019.3 3.8 SSE 8.8 SSE 0.0 142.5
08:25 17.6 73.2 1019.3 3.4 SSE 11.5 ESE 0.0 421.4
08:30 17.9 72.8 1019.3 2.8 SE 8.8 SE 0.0 521.3
08:35 18.0 70.6 1019.3 2.6 E 6.1 E 0.0 533.5
08:40 18.3 70.7 1019.3 3.0 ESE 8.8 SE 0.0 545.5
08:45 18.8 69.1 1019.4 4.0 SSE 8.8 SSE 0.0 557.4
08:50 19.1 68.4 1019.4 4.6 SSE 11.5 SE 0.0 569.0
08:55 19.3 67.5 1019.4 5.7 SSE 16.9 SE 0.0 580.2
09:00 19.7 65.6 1019.4 3.4 SE 11.5 ESE 0.0 591.5
09:05 20.2 64.4 1019.4 3.0 SE 8.8 ENE 0.0 602.8
09:10 20.3 63.2 1019.4 5.5 E 11.5 ENE 0.0 614.2
09:15 20.0 63.8 1019.4 8.0 E 16.9 ESE 0.0 624.6
09:20 20.1 63.1 1019.5 6.3 ESE 14.2 E 0.0 634.8
09:25 20.1 62.2 1019.5 6.5 E 16.9 ENE 0.0 642.8
09:30 20.2 62.1 1019.5 7.0 ESE 16.9 ESE 0.0 652.1
09:35 20.5 61.4 1019.5 6.7 ESE 14.2 ESE 0.0 661.4
09:40 20.8 60.3 1019.5 5.3 ESE 14.2 E 0.0 669.5
09:45 20.8 59.7 1019.5 5.7 E 16.9 ENE 0.0 678.3
09:50 21.3 58.6 1019.5 4.8 ESE 14.2 ESE 0.0 686.3
09:55 21.3 59.2 1019.5 6.6 ESE 19.6 NNE 0.0 694.1
10:00 21.8 58.7 1019.5 3.6 ESE 11.5 SSW 0.0 702.0
10:05 21.8 59.3 1019.4 4.4 SE 11.5 E 0.0 709.5
10:10 22.0 58.6 1019.4 4.3 ESE 11.5 ESE 0.0 717.2
10:15 22.5 57.7 1019.5 5.7 SE 14.2 ESE 0.0 724.5
10:20 22.2 57.9 1019.4 5.6 ESE 14.2 E 0.0 731.6
10:25 22.4 58.7 1019.4 5.9 ESE 11.5 ENE 0.0 738.0
10:30 22.2 59.2 1019.4 6.0 ESE 11.5 ENE 0.0 743.5
10:35 22.1 60.2 1019.4 8.1 E 19.6 E 0.0 750.3
10:40 22.2 60.6 1019.3 7.8 ESE 16.9 ESE 0.0 756.6
10:45 22.6 59.6 1019.3 6.3 ESE 16.9 ESE 0.0 762.2
10:50 23.2 58.0 1019.3 6.5 ESE 16.9 SE 0.0 767.7
10:55 23.6 56.0 1019.3 6.6 ESE 16.9 ESE 0.0 773.8
11:00 23.4 56.1 1019.2 7.3 E 19.6 E 0.0 778.0
11:05 23.4 55.6 1019.2 6.6 ESE 16.9 E 0.0 780.2
11:10 23.7 55.7 1019.3 7.8 ESE 19.6 SE 0.0 782.3
11:15 24.3 53.6 1019.3 4.5 SE 11.5 E 0.0 786.2
11:20 24.3 53.0 1019.2 6.5 ESE 16.9 ESE 0.0 788.2
11:25 24.6 52.7 1019.2 6.0 ESE 14.2 SSE 0.0 791.1
11:30 24.7 52.2 1019.1 5.0 SE 16.9 SSE 0.0 792.1
11:35 25.2 51.9 1019.1 8.5 SE 16.9 SE 0.0 792.4
11:40 25.4 50.6 1019.1 9.9 SE 22.3 SE 0.0 794.2
11:45 25.8 49.6 1019.0 7.6 SE 19.6 SSE 0.0 796.1
11:50 25.8 48.3 1019.0 5.4 SE 19.6 SE 0.0 795.3
11:55 26.0 47.6 1019.0 8.6 SE 19.6 SSE 0.0 795.8
12:00 26.1 46.4 1018.9 7.9 SE 19.6 SSE 0.0 797.5
12:05 26.2 45.5 1018.9 5.2 SE 19.6 SSE 0.0 798.5
12:10 26.4 44.6 1018.9 7.7 SSE 16.9 SE 0.0 798.1
12:15 26.4 44.4 1018.8 8.1 SSE 22.3 SE 0.0 795.1
12:20 26.3 43.8 1018.8 8.9 SSE 19.6 SSE 0.0 798.1
12:25 26.5 43.2 1018.8 9.4 SSE 19.6 SSE 0.0 798.5
12:30 26.5 42.8 1018.8 6.2 SSE 14.2 ENE 0.0 793.7
12:35 26.9 40.8 1018.8 8.6 SSE 19.6 SSE 0.0 793.5
12:40 27.0 39.9 1018.7 7.9 SE 16.9 SSE 0.0 789.6
12:45 27.2 39.0 1018.7 8.3 SE 19.6 SSW 0.0 785.2
12:50 27.0 39.0 1018.7 9.6 SSE 25.0 S 0.0 781.8
12:55 27.1 38.7 1018.7 9.7 SE 22.3 SSE 0.0 777.7
13:00 27.5 37.5 1018.6 8.6 SE 25.0 SE 0.0 771.3
13:05 27.6 37.8 1018.6 7.1 SSE 22.3 ESE 0.0 765.8
13:10 27.3 37.8 1018.7 10.2 SSE 22.3 SE 0.0 762.4
13:15 27.4 38.0 1018.6 9.7 SE 19.6 SSE 0.0 760.3
13:20 27.3 37.2 1018.6 9.7 SE 19.6 SSE 0.0 757.5
13:25 27.5 38.2 1018.5 8.9 SE 16.9 SSE 0.0 755.2
13:30 27.8 37.0 1018.6 10.6 SE 22.3 SE 0.0 750.5
13:35 27.6 36.9 1018.5 10.5 SE 22.3 SSE 0.0 745.6
13:40 27.5 36.0 1018.5 6.6 ESE 19.6 SSE 0.0 704.6
13:45 27.7 35.4 1018.6 10.2 SE 27.7 SSE 0.0 720.5
13:50 27.5 36.1 1018.5 10.0 SE 25.0 E 0.0 722.8
13:55 27.6 35.2 1018.5 6.4 SE 16.9 SE 0.0 720.5
14:00 27.9 34.5 1018.5 7.6 ESE 25.0 ENE 0.0 708.7
14:05 28.0 35.3 1018.5 6.5 SE 19.6 SE 0.0 698.8
14:10 28.0 35.7 1018.5 7.9 SSE 19.6 SSE 0.0 692.0
14:15 28.1 35.9 1018.4 10.0 SE 25.0 E 0.0 678.3
14:20 28.1 36.0 1018.4 11.5 SSE 22.3 SSE 0.0 663.9
14:25 27.7 37.3 1018.4 9.6 SSE 22.3 S 0.0 659.1
14:30 27.5 37.6 1018.4 10.6 SE 22.3 SE 0.0 645.2
14:35 27.8 36.9 1018.5 7.3 SE 16.9 SSE 0.0 636.0
14:40 28.0 36.3 1018.5 7.7 ESE 16.9 ENE 0.0 630.9
14:45 28.0 35.7 1018.5 7.8 ESE 19.6 ENE 0.0 584.1
14:50 27.7 36.5 1018.5 5.4 ESE 14.2 E 0.0 500.0
14:55 28.0 36.1 1018.4 6.4 ESE 22.3 SE 0.0 621.4
15:00 28.1 35.6 1018.4 8.0 ESE 22.3 E 0.0 586.3
15:05 28.2 36.0 1018.4 9.1 SE 19.6 SE 0.0 441.4
15:10 27.7 36.2 1018.4 6.6 SE 19.6 ESE 0.0 523.6
15:15 27.9 35.9 1018.4 9.0 SE 22.3 S 0.0 323.6
15:20 27.2 36.7 1018.4 9.2 SE 22.3 SE 0.0 325.4
15:25 27.4 36.0 1018.4 8.7 S 19.6 S 0.0 506.1
15:30 27.3 35.5 1018.4 7.0 S 16.9 SSW 0.0 483.8
15:35 27.1 35.6 1018.4 8.7 SSE 19.6 SE 0.0 237.5
15:40 27.1 35.7 1018.4 7.7 SSE 16.9 SSE 0.0 513.5
15:45 27.4 35.4 1018.4 7.4 SSE 16.9 S 0.0 443.2
15:50 27.4 35.3 1018.3 6.1 SE 14.2 ESE 0.0 400.4
15:55 27.5 35.0 1018.4 5.9 SSE 11.5 SE 0.0 334.4
16:00 27.4 35.0 1018.4 7.6 SE 19.6 SSE 0.0 396.2
16:05 27.3 35.2 1018.4 6.8 SSE 14.2 SSW 0.0 490.8
16:10 27.5 35.1 1018.4 5.2 SSE 11.5 E 0.0 258.9
16:15 27.0 35.5 1018.4 5.1 S 14.2 ESE 0.0 204.5
16:20 26.7 36.2 1018.4 5.1 S 11.5 S 0.0 247.4
16:25 26.5 36.7 1018.4 7.0 S 16.9 SSW 0.0 171.2
16:30 26.4 37.1 1018.4 3.2 SSE 14.2 S 0.0 73.2
16:35 27.0 36.4 1018.3 2.6 SSE 8.8 ESE 0.0 147.3
16:40 27.0 36.6 1018.4 4.0 S 11.5 WSW 0.0 167.1
16:45 26.3 39.2 1018.3 1.8 SSW 8.8 SSW 0.0 107.0
16:50 26.1 39.7 1018.3 3.7 SSW 8.8 SSW 0.0 244.0
16:55 26.3 38.2 1018.2 4.4 S 8.8 S 0.0 248.9
17:00 26.5 38.9 1018.3 1.3 SSW 6.1 SSW 0.0 209.1
17:05 26.8 39.2 1018.3 2.2 SSW 8.8 S 0.0 142.3
17:10 26.2 38.9 1018.3 4.6 S 11.5 S 0.0 90.7
17:15 25.9 39.5 1018.3 3.9 SSE 11.5 SSE 0.0 154.0
17:20 25.9 39.0 1018.3 4.5 SE 14.2 SE 0.0 227.6
17:25 25.9 38.5 1018.2 3.6 SSE 11.5 S 0.0 112.8
17:30 25.4 41.2 1018.3 2.8 SW 8.8 W 0.0 66.5
17:35 24.9 42.7 1018.3 1.9 SW 6.1 WSW 0.0 63.8
17:40 24.7 43.4 1018.3 1.8 SW 6.1 WSW 0.0 47.3
17:45 24.5 44.7 1018.3 0.9 WNW 3.4 SW 0.0 39.9
17:50 24.1 46.4 1018.3 3.0 WSW 8.8 WSW 0.0 46.8
17:55 23.7 48.8 1018.4 0.4 SW 6.1 WSW 0.0 43.1
18:00 23.4 49.7 1018.4 1.7 SW 6.1 SSW 0.0 36.5
18:05 23.3 49.6 1018.5 3.8 WSW 8.8 SW 0.0 36.9
18:10 23.2 50.7 1018.5 1.3 SW 6.1 WSW 0.0 35.0
18:15 22.8 51.9 1018.6 2.4 WSW 6.1 WSW 0.0 33.0
18:20 22.7 52.1 1018.6 2.8 SW 6.1 WSW 0.0 27.0
18:25 22.6 53.1 1018.7 4.7 WSW 8.8 SW 0.0 21.0
18:30 22.4 53.2 1018.7 4.8 WSW 8.8 SW 0.0 15.5
18:35 22.3 53.6 1018.8 3.8 WSW 8.8 WSW 0.0 10.6
18:40 22.1 54.4 1018.9 3.2 SW 6.1 SW 0.0 7.4
18:45 21.9 54.0 1018.9 3.9 SW 8.8 SSW 0.0 4.5
18:50 21.8 54.6 1019.0 4.1 SW 8.8 WSW 0.0 2.5
18:55 21.5 55.6 1019.0 3.8 SW 8.8 SSW 0.0 1.5
19:00 21.3 55.7 1019.1 4.8 SW 11.5 SW 0.0 0.8
19:05 21.2 55.8 1019.2 3.4 SW 8.8 SW 0.0 0.4
19:10 21.1 56.0 1019.3 5.2 WSW 11.5 SW 0.0 0.2
19:15 21.2 55.3 1019.4 3.9 SW 8.8 SW 0.0 0.2
19:20 21.2 55.4 1019.6 2.6 SSW 8.8 SSW 0.0 0.1
19:25 21.5 54.3 1019.7 2.2 WSW 6.1 WSW 0.0 0.1
19:30 21.4 53.8 1019.8 1.0 WSW 6.1 WNW 0.0 0.1
19:35 21.3 54.3 1019.9 3.5 WSW 6.1 SSW 0.0 0.1
19:40 21.3 55.4 1020.0 3.9 SW 8.8 WSW 0.0 0.1
19:45 21.3 56.7 1020.1 4.8 SW 14.2 SW 0.0 0.1
19:50 21.2 58.3 1020.1 5.1 SW 11.5 S 0.0 0.1
19:55 21.0 58.1 1020.1 7.1 WSW 14.2 SW 0.0 0.1
20:00 20.7 60.0 1020.2 4.5 SW 11.5 WSW 0.0 0.1
20:05 20.3 61.2 1020.3 5.7 WSW 8.8 WSW 0.0 0.1
20:10 20.0 61.7 1020.4 5.0 WSW 11.5 WSW 0.0 0.1
20:15 19.9 62.3 1020.4 3.5 SW 11.5 SSW 0.0 0.2
20:20 19.7 63.3 1020.5 3.6 SW 8.8 SSW 0.0 0.1
20:25 19.6 64.0 1020.6 3.6 SW 8.8 SSW 0.0 0.1
20:30 19.5 64.6 1020.6 5.4 WSW 8.8 WSW 0.0 0.1
Màxima 28.3 89.6 1020.6 11.5 SSE 27.7 SSE 0.0 798.5
Mínima 11.4 34.5 1017.4
Total 0.0